Time;durP1;ratioP1;P1;durP2;ratioP2;P2;SDS_P1;SDS_P2;PMS_P1;PMS_P2;Temp;Humidity;BMP_temperature;BMP_pressure;BME280_temperature;BME280_humidity;BME280_pressure;Samples;Min_cycle;Max_cycle;Signal;HPM_P1;HPM_P2
2022/06/12 00:01:19;;;;;;;4.82;3.25;;;;;;;12.89;100.00;97228.13;10495620;28;20280;-52
2022/06/12 00:06:21;;;;;;;7.13;3.38;;;;;;;12.77;100.00;97232.84;10495383;28;20191;-53
2022/06/12 00:11:23;;;;;;;4.90;3.40;;;;;;;12.72;100.00;97228.06;10495133;28;20293;-53
2022/06/12 00:16:25;;;;;;;6.13;3.47;;;;;;;12.66;100.00;97220.78;10494845;28;20625;-52
2022/06/12 00:21:25;;;;;;;7.53;3.97;;;;;;;12.52;100.00;97213.50;10494263;28;20305;-53
2022/06/12 00:26:32;;;;;;;4.75;3.88;;;;;;;12.39;100.00;97214.75;10494743;28;20286;-54
2022/06/12 00:31:34;;;;;;;5.65;4.18;;;;;;;12.43;100.00;97208.19;10476658;28;20213;-54
2022/06/12 00:36:34;;;;;;;5.63;3.40;;;;;;;12.36;100.00;97209.81;10493952;28;20191;-52
2022/06/12 00:41:35;;;;;;;6.13;3.50;;;;;;;12.33;100.00;97210.13;10493923;28;20261;-52
2022/06/12 00:46:46;;;;;;;6.18;3.38;;;;;;;12.25;100.00;97203.00;10493411;28;20257;-52
2022/06/12 00:51:50;;;;;;;5.93;3.65;;;;;;;12.17;100.00;97210.81;10493594;28;20268;-53
2022/06/12 00:56:53;;;;;;;8.35;4.75;;;;;;;12.14;100.00;97211.13;10493212;28;20563;-57
2022/06/12 01:01:54;;;;;;;5.93;3.65;;;;;;;12.23;100.00;97204.13;10474675;28;20226;-55
2022/06/12 01:06:56;;;;;;;7.45;3.53;;;;;;;12.27;100.00;97219.44;10492565;28;20193;-57
2022/06/12 01:11:58;;;;;;;5.00;3.80;;;;;;;12.13;100.00;97210.31;10474637;28;20231;-57
2022/06/12 01:17:00;;;;;;;8.82;4.10;;;;;;;11.96;100.00;97208.56;10474020;28;20725;-58
2022/06/12 01:22:21;;;;;;;7.70;3.90;;;;;;;11.97;100.00;97209.38;10474153;28;20230;-53
2022/06/12 01:27:39;;;;;;;5.07;3.88;;;;;;;11.94;100.00;97205.25;10491313;28;20218;-56
2022/06/12 01:32:56;;;;;;;4.35;3.95;;;;;;;11.95;100.00;97206.91;10474042;28;20266;-55
2022/06/12 01:38:12;;;;;;;4.00;3.60;;;;;;;11.93;100.00;97198.38;10491435;28;20697;-54
2022/06/12 01:43:18;;;;;;;5.83;4.17;;;;;;;11.86;100.00;97198.09;10457700;22;20327;-52
2022/06/12 01:48:56;;;;;;;7.50;3.73;;;;;;;11.87;100.00;97193.69;10367813;28;20217;-53
2022/06/12 01:54:04;;;;;;;7.80;3.70;;;;;;;11.86;100.00;97192.84;10367786;28;20586;-48
2022/06/12 01:59:21;;;;;;;5.53;4.00;;;;;;;11.84;100.00;97191.34;10362689;28;20228;-49
2022/06/12 02:04:31;;;;;;;6.65;4.13;;;;;;;11.85;100.00;97195.63;10382255;28;20232;-54
2022/06/12 02:09:41;;;;;;;9.90;4.23;;;;;;;11.75;100.00;97178.16;10365678;28;20678;-50
2022/06/12 02:14:48;;;;;;;6.40;4.10;;;;;;;11.74;100.00;97186.19;10366774;28;20247;-56
2022/06/12 02:19:50;;;;;;;6.70;3.83;;;;;;;11.70;100.00;97183.06;10365552;28;20225;-56
2022/06/12 02:24:56;;;;;;;7.97;3.87;;;;;;;11.60;100.00;97177.88;10366531;28;20688;-53
2022/06/12 02:30:06;;;;;;;6.97;3.87;;;;;;;11.62;100.00;97180.34;10365920;28;20675;-54
2022/06/12 02:35:15;;;;;;;7.33;3.90;;;;;;;11.60;100.00;97177.06;10366701;28;20747;-55
2022/06/12 02:40:20;;;;;;;6.18;3.92;;;;;;;11.55;100.00;97171.47;10373280;28;20304;-49
2022/06/12 02:45:28;;;;;;;5.80;3.63;;;;;;;11.54;100.00;97172.44;10373166;28;20237;-51
2022/06/12 02:50:32;;;;;;;5.40;4.23;;;;;;;11.50;100.00;97169.28;10374769;28;20668;-55
2022/06/12 02:55:37;;;;;;;7.17;3.80;;;;;;;11.47;100.00;97174.00;10372803;28;20292;-54
2022/06/12 03:00:50;;;;;;;5.05;3.88;;;;;;;11.41;100.00;97171.00;10374389;28;20221;-52
2022/06/12 03:05:53;;;;;;;4.78;4.22;;;;;;;11.49;100.00;97164.19;10372316;28;20225;-49
2022/06/12 03:11:01;;;;;;;4.15;3.75;;;;;;;11.47;100.00;97158.25;10372752;28;20566;-51
2022/06/12 03:16:07;;;;;;;9.57;3.88;;;;;;;11.55;100.00;97161.78;10371491;28;20665;-49
2022/06/12 03:21:07;;;;;;;5.75;3.90;;;;;;;11.61;100.00;97147.25;10373060;28;20221;-50
2022/06/12 03:26:10;;;;;;;4.15;3.75;;;;;;;11.66;100.00;97157.28;10371534;28;20220;-51
2022/06/12 03:31:20;;;;;;;4.53;3.87;;;;;;;11.59;100.00;97159.66;10371399;28;20490;-54
2022/06/12 03:36:29;;;;;;;9.37;3.57;;;;;;;11.67;100.00;97158.91;10371675;28;20215;-49
2022/06/12 03:41:36;;;;;;;9.35;4.03;;;;;;;11.85;100.00;97162.34;10371333;28;20267;-53
2022/06/12 03:46:44;;;;;;;5.72;3.65;;;;;;;12.00;100.00;97154.75;10371086;28;20233;-55
2022/06/12 03:52:03;;;;;;;5.90;3.47;;;;;;;12.15;100.00;97157.63;10371704;28;20213;-53
2022/06/12 04:02:30;;;;;;;6.45;3.35;;;;;;;12.40;100.00;97150.69;10370044;28;20228;-56
2022/06/12 04:07:30;;;;;;;8.52;3.10;;;;;;;12.58;100.00;97150.63;10371831;28;20182;-51
2022/06/12 04:12:33;;;;;;;3.55;2.90;;;;;;;12.74;100.00;97155.13;10371535;28;20229;-56
2022/06/12 04:17:34;;;;;;;7.15;3.00;;;;;;;12.99;100.00;97157.81;10369699;28;20208;-52
2022/06/12 04:23:04;;;;;;;5.97;3.20;;;;;;;13.17;100.00;97149.81;10369907;28;20231;-53
2022/06/12 04:28:14;;;;;;;4.28;2.65;;;;;;;13.45;100.00;97146.91;10370635;28;20209;-54
2022/06/12 04:33:31;;;;;;;4.38;2.78;;;;;;;13.76;100.00;97152.31;10369523;28;20352;-55
2022/06/12 04:38:33;;;;;;;5.38;2.70;;;;;;;14.05;100.00;97132.53;10370695;28;20273;-56
2022/06/12 04:43:34;;;;;;;3.95;2.63;;;;;;;14.21;100.00;97137.78;10370224;28;20328;-55
2022/06/12 04:48:39;;;;;;;6.35;2.38;;;;;;;14.38;100.00;97125.38;10369989;28;20215;-56
2022/06/12 04:53:41;;;;;;;3.45;2.42;;;;;;;14.52;100.00;97126.47;10370248;28;20224;-56
2022/06/12 04:58:42;;;;;;;4.05;2.35;;;;;;;14.51;100.00;97130.09;10369883;28;20189;-53
2022/06/12 05:03:42;;;;;;;4.95;2.70;;;;;;;14.67;100.00;97125.75;10368624;28;20217;-51
2022/06/12 05:08:43;;;;;;;4.68;2.45;;;;;;;14.93;100.00;97122.81;10369519;28;20227;-50
2022/06/12 05:13:44;;;;;;;3.90;2.55;;;;;;;15.15;100.00;97113.31;10368996;28;20558;-52
2022/06/12 05:18:44;;;;;;;10.38;2.67;;;;;;;15.45;100.00;97114.25;10368927;28;20194;-57
2022/06/12 05:23:44;;;;;;;2.53;2.30;;;;;;;15.78;100.00;97108.69;10368729;28;20621;-56
2022/06/12 05:28:45;;;;;;;4.32;2.30;;;;;;;16.28;100.00;97102.88;10368578;28;20568;-53
2022/06/12 05:33:46;;;;;;;6.97;2.20;;;;;;;16.91;100.00;97098.00;10367297;28;20208;-55
2022/06/12 05:38:46;;;;;;;5.72;2.97;;;;;;;17.68;96.33;97080.56;10368116;28;20220;-51
2022/06/12 05:43:46;;;;;;;8.10;2.10;;;;;;;18.53;89.26;97046.00;10368241;28;20236;-55
2022/06/12 05:48:47;;;;;;;3.72;2.22;;;;;;;19.32;84.04;97028.59;10367900;28;20196;-55
2022/06/12 05:53:47;;;;;;;4.20;1.90;;;;;;;20.18;78.07;96991.44;10367988;28;20201;-51
2022/06/12 05:58:48;;;;;;;3.00;2.00;;;;;;;20.04;74.05;96964.09;10367728;28;20193;-58
2022/06/12 06:03:50;;;;;;;6.97;2.10;;;;;;;20.03;74.49;96989.88;10367401;28;20227;-56
2022/06/12 06:08:52;;;;;;;3.67;1.95;;;;;;;20.06;73.17;96978.81;10367731;28;20771;-52
2022/06/12 06:13:52;;;;;;;5.95;2.08;;;;;;;19.80;76.50;97026.75;10368537;28;20221;-57
2022/06/12 06:18:56;;;;;;;3.72;2.28;;;;;;;19.84;77.41;97038.59;10353600;28;20209;-54
2022/06/12 06:23:56;;;;;;;2.83;1.83;;;;;;;19.90;79.27;97049.22;10348480;28;20205;-57
2022/06/12 06:28:57;;;;;;;4.85;2.13;;;;;;;20.53;75.11;97010.53;10354427;28;20671;-52
2022/06/12 06:33:57;;;;;;;7.47;1.90;;;;;;;20.70;73.86;96986.09;10366928;28;20688;-55
2022/06/12 06:38:58;;;;;;;2.85;1.92;;;;;;;21.35;72.79;96985.84;10366415;28;20634;-55
2022/06/12 06:49:18;;;;;;;2.13;1.55;;;;;;;22.59;61.08;96836.22;10366593;28;20189;-60
2022/06/12 06:54:19;;;;;;;3.40;1.77;;;;;;;22.03;60.58;96834.75;10366658;28;20979;-59
2022/06/12 06:59:19;;;;;;;1.88;1.52;;;;;;;22.03;58.98;96805.41;10360352;28;20271;-59
2022/06/12 07:04:19;;;;;;;4.22;1.48;;;;;;;22.12;59.49;96827.25;10349186;28;20283;-57
2022/06/12 07:09:20;;;;;;;1.85;1.30;;;;;;;22.49;58.10;96808.44;10363065;28;20234;-57
2022/06/12 07:14:20;;;;;;;5.18;1.40;;;;;;;22.52;58.26;96818.66;10354471;28;20596;-57
2022/06/12 07:19:21;;;;;;;4.03;1.60;;;;;;;22.51;58.62;96828.53;10359935;28;20190;-55
2022/06/12 07:24:22;;;;;;;2.95;1.30;;;;;;;22.33;58.31;96834.78;10357031;28;20594;-54
2022/06/12 07:29:22;;;;;;;3.15;1.50;;;;;;;22.38;57.72;96810.06;10373713;28;20277;-59
2022/06/12 07:34:22;;;;;;;1.52;1.00;;;;;;;22.57;56.02;96787.56;10373254;28;20220;-56
2022/06/12 07:39:26;;;;;;;2.25;1.30;;;;;;;22.57;56.80;96810.78;10373029;28;20244;-56
2022/06/12 07:44:28;;;;;;;3.15;1.40;;;;;;;23.28;55.12;96789.41;10355399;28;20276;-52
2022/06/12 07:49:31;;;;;;;6.18;1.77;;;;;;;23.71;55.38;96806.03;10372547;28;20189;-59
2022/06/12 07:54:31;;;;;;;4.45;1.45;;;;;;;23.68;54.13;96777.88;10395225;22;20675;-63
2022/06/12 07:59:32;;;;;;;3.83;1.65;;;;;;;23.38;56.78;96840.41;10413186;28;20216;-64
2022/06/12 08:04:33;;;;;;;4.90;1.52;;;;;;;24.82;55.18;96835.00;10412555;28;20212;-63
2022/06/12 08:09:33;;;;;;;3.00;1.48;;;;;;;24.12;55.58;96828.19;10427205;28;20620;-64
2022/06/12 08:14:33;;;;;;;5.45;1.60;;;;;;;23.53;56.74;96850.59;10444863;28;20644;-64
2022/06/12 08:24:53;;;;;;;4.65;1.48;;;;;;;26.59;48.73;96732.09;10451469;28;20200;-61
2022/06/12 08:29:53;;;;;;;2.90;1.50;;;;;;;25.54;51.33;96778.91;10451424;28;20219;-63
2022/06/12 08:34:56;;;;;;;4.70;1.70;;;;;;;25.32;52.51;96792.31;10451498;28;20496;-62
2022/06/12 08:39:57;;;;;;;1.35;1.10;;;;;;;26.29;49.76;96761.13;10452680;28;20520;-63
2022/06/12 08:45:15;;;;;;;2.45;1.48;;;;;;;25.90;51.46;96788.16;10452522;28;20203;-62
2022/06/12 08:50:18;;;;;;;3.65;1.20;;;;;;;25.77;50.74;96772.44;10451837;28;20738;-63
2022/06/12 08:55:37;;;;;;;2.80;1.30;;;;;;;26.11;50.42;96783.00;10469385;28;20241;-64
2022/06/12 09:00:38;;;;;;;3.75;1.20;;;;;;;26.08;50.23;96765.53;10493030;28;20288;-62
2022/06/12 09:05:49;;;;;;;4.90;1.55;;;;;;;25.90;48.61;96710.31;10492352;28;20215;-63
2022/06/12 09:11:03;;;;;;;2.97;1.40;;;;;;;26.75;47.94;96715.00;10492762;28;20194;-61
2022/06/12 09:16:19;;;;;;;3.22;1.52;;;;;;;27.32;46.08;96691.06;10491475;28;20357;-61
2022/06/12 09:21:32;;;;;;;2.50;1.13;;;;;;;28.99;40.99;96603.41;10490904;28;20225;-61
2022/06/12 09:26:49;;;;;;;5.82;1.50;;;;;;;27.42;43.16;96601.50;10492346;28;20560;-63
2022/06/12 09:32:14;;;;;;;3.30;1.40;;;;;;;26.46;46.37;96672.38;10492117;28;20194;-60
2022/06/12 09:43:30;;;;;;;2.67;1.33;;;;;;;30.04;41.45;96655.34;10491624;28;20215;-61
2022/06/12 09:49:15;;;;;;;3.17;1.30;;;;;;;30.34;39.36;96585.09;10466235;28;20242;-62
2022/06/12 09:54:37;;;;;;;1.60;1.10;;;;;;;28.46;41.71;96593.88;10362614;28;20237;-62
2022/06/12 09:59:44;;;;;;;2.78;1.20;;;;;;;29.26;39.92;96572.50;10470522;28;20223;-61
2022/06/12 10:04:56;;;;;;;3.22;1.50;;;;;;;26.51;44.33;96578.34;10490026;28;20200;-62
2022/06/12 10:10:08;;;;;;;4.57;1.40;;;;;;;28.22;41.18;96561.34;10490926;28;20188;-62
2022/06/12 10:15:15;;;;;;;2.95;1.40;;;;;;;28.63;40.75;96568.50;10490746;28;20203;-61
2022/06/12 10:20:22;;;;;;;4.47;1.35;;;;;;;30.03;39.70;96582.69;10489030;28;20218;-63
2022/06/12 10:25:33;;;;;;;2.47;1.33;;;;;;;30.06;39.27;96576.72;10490867;28;20716;-63
2022/06/12 10:30:45;;;;;;;5.32;1.70;;;;;;;30.48;38.14;96555.50;10490888;28;20560;-63
2022/06/12 10:35:51;;;;;;;2.90;1.35;;;;;;;29.00;38.94;96532.19;10490285;28;20211;-63
2022/06/12 10:40:59;;;;;;;2.72;1.23;;;;;;;27.53;40.91;96533.97;10488858;28;20276;-63
2022/06/12 10:46:16;;;;;;;3.03;1.42;;;;;;;27.57;41.73;96553.88;10490281;28;20234;-64
2022/06/12 10:51:16;;;;;;;1.33;1.15;;;;;;;29.64;39.14;96559.28;10490258;28;20197;-63
2022/06/12 10:56:22;;;;;;;1.92;0.98;;;;;;;29.12;34.97;96400.44;10489530;28;20240;-63
2022/06/12 11:01:29;;;;;;;4.50;0.95;;;;;;;29.21;36.98;96468.13;10495904;28;20218;-63
2022/06/12 11:06:37;;;;;;;1.40;1.02;;;;;;;29.15;34.50;96381.00;10496498;28;20573;-63
2022/06/12 11:11:45;;;;;;;1.55;1.00;;;;;;;28.14;35.49;96353.72;10496268;28;20187;-63
2022/06/12 11:16:55;;;;;;;4.28;1.23;;;;;;;28.16;36.36;96383.88;10497060;28;20226;-63
2022/06/12 11:22:24;;;;;;;2.97;1.05;;;;;;;29.49;34.16;96355.06;10497201;28;20242;-64
2022/06/12 11:27:43;;;;;;;1.75;1.13;;;;;;;29.60;33.77;96344.94;10495765;28;20215;-64
2022/06/12 11:33:04;;;;;;;3.72;1.10;;;;;;;28.75;34.49;96337.13;10496799;28;20677;-64
2022/06/12 11:38:20;;;;;;;1.10;1.00;;;;;;;28.61;34.98;96333.50;10496741;28;20277;-64
2022/06/12 11:43:36;;;;;;;2.28;1.00;;;;;;;28.65;37.29;96412.69;10495032;28;20222;-64
2022/06/12 11:48:55;;;;;;;4.68;1.50;;;;;;;29.29;42.42;96591.63;10495044;28;20219;-64
2022/06/12 11:54:18;;;;;;;3.50;1.23;;;;;;;31.03;39.32;96564.00;10502676;28;20275;-64
2022/06/12 11:59:32;;;;;;;2.92;1.50;;;;;;;31.92;39.46;96602.19;10519749;28;20550;-65
2022/06/12 12:04:35;;;;;;;2.03;1.63;;;;;;;32.94;39.06;96591.34;10529387;28;20207;-64
2022/06/12 12:10:04;;;;;;;3.30;1.30;;;;;;;33.34;35.71;96522.84;10537140;28;20190;-65
2022/06/12 12:15:10;;;;;;;3.97;1.52;;;;;;;33.13;39.26;96620.25;10519001;28;20213;-65
2022/06/12 12:20:16;;;;;;;2.28;1.30;;;;;;;33.94;35.68;96538.75;10518341;28;20776;-64
2022/06/12 12:25:24;;;;;;;4.10;1.67;;;;;;;32.21;39.70;96574.03;10536573;28;20245;-64
2022/06/12 12:30:28;;;;;;;2.25;1.40;;;;;;;31.24;40.37;96569.94;10536097;28;20572;-65
2022/06/12 12:41:11;;;;;;;6.97;1.42;;;;;;;30.61;40.71;96560.19;10536031;28;20226;-64
2022/06/12 12:46:13;;;;;;;4.00;2.00;;;;;;;30.42;41.82;96590.69;10535773;28;20218;-65
2022/06/12 12:51:31;;;;;;;5.13;1.90;;;;;;;29.30;44.85;96624.84;10535746;28;20273;-64
2022/06/12 12:56:33;;;;;;;3.55;1.90;;;;;;;31.45;39.82;96559.56;10517124;28;20244;-64
2022/06/12 13:01:46;;;;;;;5.85;2.00;;;;;;;30.59;43.61;96640.81;10535270;28;20234;-65
2022/06/12 13:07:02;;;;;;;4.60;1.80;;;;;;;32.18;40.58;96605.28;10516830;28;20219;-64
2022/06/12 13:12:31;;;;;;;2.85;1.83;;;;;;;33.05;39.04;96594.63;10534986;28;20197;-64
2022/06/12 13:17:47;;;;;;;5.93;2.10;;;;;;;32.29;38.67;96527.28;10516171;28;20210;-64
2022/06/12 13:22:57;;;;;;;3.22;1.98;;;;;;;30.55;41.25;96527.03;10533578;28;20222;-64
2022/06/12 13:27:58;;;;;;;3.47;1.58;;;;;;;33.47;37.45;96549.16;10534484;28;20649;-64
2022/06/12 13:33:16;;;;;;;5.93;1.70;;;;;;;33.96;37.88;96573.78;10534031;28;20194;-64
2022/06/12 13:38:23;;;;;;;4.20;2.03;;;;;;;34.02;36.98;96553.50;10533773;28;20189;-65
2022/06/12 13:43:38;;;;;;;4.28;1.48;;;;;;;32.25;39.24;96539.81;10533370;28;20229;-64
2022/06/12 13:48:38;;;;;;;2.22;1.52;;;;;;;34.78;35.74;96541.63;10533039;28;20199;-64
2022/06/12 13:53:47;;;;;;;3.90;1.53;;;;;;;35.14;35.43;96537.81;10533210;28;20269;-64
2022/06/12 13:58:53;;;;;;;4.45;1.65;;;;;;;34.90;34.77;96502.09;10454595;23;20569;-55
2022/06/12 14:04:05;;;;;;;6.13;1.40;;;;;;;35.71;35.04;96541.47;10411246;28;20231;-59
2022/06/12 14:09:16;;;;;;;7.28;1.50;;;;;;;34.85;34.65;96477.75;10410875;28;20211;-61
2022/06/12 14:14:23;;;;;;;6.18;1.67;;;;;;;31.62;39.20;96466.19;10411020;28;20190;-60
2022/06/12 14:19:26;;;;;;;5.80;1.75;;;;;;;33.81;35.92;96490.72;10410390;28;20207;-58
2022/06/12 14:24:29;;;;;;;6.15;1.60;;;;;;;32.87;36.91;96477.78;10410670;28;20278;-58
2022/06/12 14:29:37;;;;;;;8.50;2.00;;;;;;;32.05;38.76;96494.91;10410450;28;20215;-58
2022/06/12 14:34:43;;;;;;;3.63;1.42;;;;;;;32.20;39.26;96501.97;10416062;28;20615;-60
2022/06/12 14:39:44;;;;;;;2.58;1.42;;;;;;;34.47;36.56;96534.34;10418884;28;20312;-59
2022/06/12 14:44:45;;;;;;;7.65;2.00;;;;;;;34.70;35.27;96489.88;10418314;28;20634;-59
2022/06/12 14:49:47;;;;;;;2.47;1.50;;;;;;;33.68;36.91;96494.31;10408390;28;20576;-56
2022/06/12 14:54:47;;;;;;;2.25;1.35;;;;;;;35.85;33.00;96454.88;10396263;28;20247;-59
2022/06/12 14:59:48;;;;;;;6.00;1.50;;;;;;;35.27;32.91;96420.88;10393870;28;20227;-59
2022/06/12 15:04:49;;;;;;;2.92;1.52;;;;;;;35.62;33.21;96429.75;10395943;28;20291;-57
2022/06/12 15:09:50;;;;;;;5.50;1.45;;;;;;;34.05;35.23;96419.66;10391095;28;20561;-56
2022/06/12 15:14:51;;;;;;;3.83;1.50;;;;;;;32.61;36.52;96382.59;10377030;28;20678;-57
2022/06/12 15:19:51;;;;;;;5.05;1.60;;;;;;;34.27;34.62;96423.41;10358955;28;20275;-56
2022/06/12 15:24:52;;;;;;;3.08;1.65;;;;;;;35.03;33.64;96416.75;10376274;28;20236;-56
2022/06/12 15:29:52;;;;;;;6.93;1.50;;;;;;;34.15;34.94;96415.03;10376209;28;20608;-55
2022/06/12 15:34:53;;;;;;;3.57;1.50;;;;;;;34.19;35.35;96435.06;10375976;28;20972;-57
2022/06/12 15:39:54;;;;;;;2.80;1.65;;;;;;;35.01;33.53;96395.28;10375811;28;20537;-57
2022/06/12 15:44:54;;;;;;;2.93;1.60;;;;;;;34.75;33.68;96378.97;10374555;28;20220;-57
2022/06/12 15:49:54;;;;;;;3.57;1.50;;;;;;;33.68;34.80;96394.59;10375709;28;20186;-58
2022/06/12 15:54:55;;;;;;;2.37;1.50;;;;;;;32.06;36.88;96359.13;10374521;28;20451;-58
2022/06/12 15:59:55;;;;;;;4.53;1.90;;;;;;;32.52;36.49;96382.50;10375217;28;20503;-58
2022/06/12 16:04:56;;;;;;;2.23;1.53;;;;;;;30.14;39.56;96359.97;10374121;28;20459;-55
2022/06/12 16:09:56;;;;;;;3.83;1.63;;;;;;;29.68;40.85;96398.31;10374742;28;20440;-58
2022/06/12 16:14:56;;;;;;;7.53;1.97;;;;;;;29.30;41.37;96403.56;10374344;28;20483;-57
2022/06/12 16:19:57;;;;;;;4.57;2.10;;;;;;;29.24;41.11;96399.31;10374015;28;20486;-55
2022/06/12 16:24:57;;;;;;;3.63;1.60;;;;;;;28.96;42.59;96425.94;10374043;28;20444;-58
2022/06/12 16:29:57;;;;;;;3.17;1.73;;;;;;;29.00;41.14;96375.75;10373902;28;20468;-54
2022/06/12 16:34:59;;;;;;;5.03;2.73;;;;;;;28.78;40.87;96378.91;10373544;28;20217;-53
2022/06/12 16:39:59;;;;;;;6.97;1.92;;;;;;;28.56;41.27;96368.53;10373121;28;20476;-58
2022/06/12 16:45:00;;;;;;;1.47;1.17;;;;;;;28.45;41.02;96362.41;10373014;28;20201;-58
2022/06/12 16:50:00;;;;;;;9.30;7.28;;;;;;;27.02;42.69;96354.56;10373218;28;20440;-55
2022/06/12 16:55:01;;;;;;;14.48;11.02;;;;;;;27.00;42.89;96372.06;10372245;28;20193;-55
2022/06/12 17:00:06;;;;;;;12.10;8.87;;;;;;;26.11;44.15;96377.56;10396089;28;20819;-55
2022/06/12 17:05:09;;;;;;;4.22;1.92;;;;;;;26.28;44.67;96398.81;10413331;28;20450;-55
2022/06/12 17:10:14;;;;;;;4.90;1.50;;;;;;;26.24;44.91;96424.63;10413267;28;20193;-55
2022/06/12 17:15:17;;;;;;;3.65;1.42;;;;;;;26.03;45.16;96415.69;10413568;28;20212;-58
2022/06/12 17:25:36;;;;;;;4.47;1.25;;;;;;;25.01;46.84;96435.38;10397211;28;20735;-53
2022/06/12 17:30:37;;;;;;;4.13;1.40;;;;;;;24.96;47.20;96432.69;10404558;28;20185;-58
2022/06/12 17:35:38;;;;;;;1.35;1.25;;;;;;;25.04;47.56;96464.38;10394600;28;20620;-56
2022/06/12 17:40:38;;;;;;;2.47;1.48;;;;;;;24.58;47.85;96454.06;10379853;28;20315;-56
2022/06/12 17:45:38;;;;;;;2.25;1.40;;;;;;;24.68;47.66;96450.66;10389296;28;20204;-54
2022/06/12 17:50:40;;;;;;;5.30;1.67;;;;;;;24.43;49.07;96489.47;10401112;28;20279;-57
2022/06/12 17:55:46;;;;;;;2.72;1.52;;;;;;;24.48;48.90;96486.84;10377271;28;20237;-57
2022/06/12 18:00:46;;;;;;;3.50;1.52;;;;;;;24.67;48.59;96486.53;10384793;28;20258;-57
2022/06/12 18:05:47;;;;;;;2.88;1.55;;;;;;;24.46;49.84;96505.03;10387300;28;20209;-56
2022/06/12 18:10:48;;;;;;;32.13;24.27;;;;;;;24.01;50.65;96524.81;10388400;28;20640;-56
2022/06/12 18:21:07;;;;;;;3.50;2.38;;;;;;;23.76;52.52;96560.81;10388982;28;20212;-54
2022/06/12 18:26:09;;;;;;;2.75;1.40;;;;;;;23.51;53.80;96585.31;10387457;28;20204;-55
2022/06/12 18:31:10;;;;;;;11.65;1.73;;;;;;;23.24;54.40;96598.47;10389016;28;20195;-58
2022/06/12 18:36:11;;;;;;;3.30;1.55;;;;;;;22.57;56.25;96618.53;10386360;28;20215;-53
2022/06/12 18:41:12;;;;;;;1.75;1.50;;;;;;;22.36;58.37;96660.81;10381693;28;20576;-56
2022/06/12 18:46:14;;;;;;;5.40;1.70;;;;;;;21.90;60.05;96689.88;10387574;28;20213;-56
2022/06/12 18:51:14;;;;;;;2.25;1.48;;;;;;;21.06;63.90;96728.91;10387629;28;20312;-58
2022/06/12 18:56:14;;;;;;;4.53;1.90;;;;;;;19.18;70.28;96775.47;10388996;28;20261;-54
2022/06/12 19:01:15;;;;;;;4.32;1.60;;;;;;;18.70;72.70;96738.63;10407115;28;20232;-58
2022/06/12 19:06:15;;;;;;;2.95;2.13;;;;;;;18.54;74.20;96723.94;10408946;28;20221;-55
2022/06/12 19:11:36;;;;;;;3.90;1.90;;;;;;;18.30;75.59;96720.06;10409561;28;20192;-60
2022/06/12 19:16:37;;;;;;;4.90;2.05;;;;;;;18.10;77.74;96720.91;10390040;28;20208;-54
2022/06/12 19:21:38;;;;;;;3.72;2.05;;;;;;;17.78;79.19;96727.81;10375771;28;20219;-57
2022/06/12 19:26:39;;;;;;;4.40;2.10;;;;;;;17.88;80.12;96732.69;10375896;28;20324;-56
2022/06/12 19:31:39;;;;;;;2.97;1.67;;;;;;;17.67;80.24;96731.03;10390049;28;20213;-56
2022/06/12 19:36:42;;;;;;;3.75;2.10;;;;;;;17.47;80.79;96726.50;10396188;28;20211;-54
2022/06/12 19:41:47;;;;;;;2.55;1.85;;;;;;;17.36;82.41;96738.47;10402188;28;20299;-54
2022/06/12 19:46:47;;;;;;;5.90;2.05;;;;;;;17.31;82.10;96729.50;10395774;28;20216;-54
2022/06/12 19:51:48;;;;;;;3.42;1.95;;;;;;;17.07;84.57;96739.59;10410440;28;20940;-54
2022/06/12 19:56:48;;;;;;;3.45;1.98;;;;;;;17.01;85.70;96738.53;10395907;28;20240;-55
2022/06/12 20:01:52;;;;;;;3.58;2.08;;;;;;;16.79;87.12;96729.84;10399980;28;20220;-58
2022/06/12 20:12:12;;;;;;;3.75;2.30;;;;;;;16.67;87.35;96729.59;10410874;23;20404;-54
2022/06/12 20:17:13;;;;;;;3.72;2.30;;;;;;;16.57;88.19;96729.13;10373303;28;20201;-51
2022/06/12 20:22:14;;;;;;;3.22;2.92;;;;;;;16.53;88.27;96725.22;10373986;28;20253;-51
2022/06/12 20:27:14;;;;;;;4.97;2.60;;;;;;;16.35;89.12;96720.44;10374039;28;20197;-54
2022/06/12 20:32:16;;;;;;;7.05;2.60;;;;;;;16.41;88.66;96720.47;10354890;28;20213;-53
2022/06/12 20:37:17;;;;;;;3.13;2.30;;;;;;;16.33;88.52;96715.34;10334032;28;20597;-54
2022/06/12 20:42:17;;;;;;;2.60;2.40;;;;;;;16.18;89.11;96718.06;10333328;28;20230;-58
2022/06/12 20:47:21;;;;;;;5.22;2.42;;;;;;;16.10;89.54;96718.22;10333793;28;20189;-51
2022/06/12 20:52:21;;;;;;;5.93;2.65;;;;;;;16.01;90.32;96711.44;10333374;28;20213;-51
2022/06/12 20:57:22;;;;;;;8.43;2.78;;;;;;;15.90;91.36;96723.34;10332905;28;20210;-52
2022/06/12 21:02:22;;;;;;;4.43;2.63;;;;;;;15.67;92.03;96721.66;10332040;28;20281;-56
2022/06/12 21:07:23;;;;;;;5.25;2.75;;;;;;;15.55;92.74;96725.81;10331777;28;20546;-57
2022/06/12 21:12:23;;;;;;;3.75;2.10;;;;;;;15.46;94.02;96719.03;10326590;28;20609;-55
2022/06/12 21:17:24;;;;;;;2.70;2.38;;;;;;;15.34;94.74;96716.03;10291684;28;20704;-52
2022/06/12 21:22:24;;;;;;;4.60;2.15;;;;;;;15.28;94.89;96707.06;10291374;28;20226;-50
2022/06/12 21:27:26;;;;;;;3.90;2.28;;;;;;;15.16;95.78;96719.09;10313244;28;20223;-54
2022/06/12 21:32:26;;;;;;;3.47;2.25;;;;;;;15.05;96.59;96722.22;10328749;28;20210;-54
2022/06/12 21:37:26;;;;;;;5.78;2.35;;;;;;;14.87;98.11;96710.22;10328026;28;20185;-54
2022/06/12 21:42:27;;;;;;;2.97;2.22;;;;;;;14.84;98.81;96712.41;10327381;28;20312;-53
2022/06/12 21:47:27;;;;;;;4.78;2.58;;;;;;;14.73;99.34;96708.41;10327750;28;20331;-57
2022/06/12 21:57:46;;;;;;;3.10;2.20;;;;;;;14.61;100.00;96714.16;10327432;28;20201;-54
2022/06/12 22:02:48;;;;;;;4.85;2.45;;;;;;;14.54;100.00;96721.09;10326739;28;20221;-50
2022/06/12 22:07:48;;;;;;;5.03;2.53;;;;;;;14.41;100.00;96711.22;10323866;28;20579;-50
2022/06/12 22:12:49;;;;;;;5.63;2.55;;;;;;;14.28;100.00;96705.72;10335309;28;20233;-52
2022/06/12 22:17:50;;;;;;;3.38;2.25;;;;;;;14.24;100.00;96697.38;10366719;28;20280;-50
2022/06/12 22:22:50;;;;;;;5.07;2.55;;;;;;;14.12;100.00;96704.09;10366957;28;20233;-49
2022/06/12 22:27:51;;;;;;;4.75;3.25;;;;;;;14.09;100.00;96696.53;10366593;28;20208;-52
2022/06/12 22:32:51;;;;;;;2.60;2.33;;;;;;;14.02;100.00;96696.41;10366639;28;20274;-50
2022/06/12 22:37:51;;;;;;;4.03;2.72;;;;;;;14.02;100.00;96695.59;10366601;28;20203;-53
2022/06/12 22:42:52;;;;;;;3.08;2.50;;;;;;;13.95;100.00;96713.13;10366226;28;20286;-50
2022/06/12 22:47:52;;;;;;;4.97;2.58;;;;;;;13.81;100.00;96704.97;10366576;28;20197;-54
2022/06/12 22:52:53;;;;;;;5.35;2.65;;;;;;;13.66;100.00;96706.75;10365937;28;20228;-51
2022/06/12 22:57:53;;;;;;;5.60;2.95;;;;;;;13.59;100.00;96703.19;10373417;28;20288;-52
2022/06/12 23:02:54;;;;;;;2.85;2.65;;;;;;;13.40;100.00;96702.69;10373961;28;20276;-50
2022/06/12 23:07:54;;;;;;;4.45;2.75;;;;;;;13.43;100.00;96694.44;10373388;28;20189;-53
2022/06/12 23:12:54;;;;;;;4.03;2.78;;;;;;;13.39;100.00;96682.59;10373859;28;20248;-52
2022/06/12 23:17:55;;;;;;;6.00;2.63;;;;;;;13.23;100.00;96686.13;10373385;28;20193;-54
2022/06/12 23:28:16;;;;;;;3.47;2.92;;;;;;;12.99;100.00;96677.38;10373115;28;20190;-50
2022/06/12 23:33:20;;;;;;;5.40;3.17;;;;;;;13.01;100.00;96677.22;10373132;28;20213;-52
2022/06/12 23:38:22;;;;;;;3.42;2.20;;;;;;;12.95;100.00;96668.19;10372736;28;20670;-51
2022/06/12 23:43:22;;;;;;;3.13;2.50;;;;;;;12.78;100.00;96675.34;10372842;28;20229;-49
2022/06/12 23:48:23;;;;;;;5.75;2.97;;;;;;;12.61;100.00;96676.41;10372386;28;20197;-51
2022/06/12 23:53:23;;;;;;;4.20;3.03;;;;;;;12.64;100.00;96670.81;10372341;28;20267;-49
2022/06/12 23:58:24;;;;;;;4.07;3.35;;;;;;;12.53;100.00;96664.13;10372090;28;20284;-49
